sensor_id;sensor_type;location;lat;lon;timestamp;pressure;altitude;pressure_sealevel;temperature;humidity
76994;BME280;66749;47.406;18.822;2023-06-01T00:00:14;100539.63;;;15.45;75.52
76994;BME280;66749;47.406;18.822;2023-06-01T00:00:46;100541.75;;;15.40;76.01
76994;BME280;66749;47.406;18.822;2023-06-01T00:01:18;100540.91;;;15.40;76.27
76994;BME280;66749;47.406;18.822;2023-06-01T00:01:52;100547.25;;;15.37;76.14
76994;BME280;66749;47.406;18.822;2023-06-01T00:02:24;100543.13;;;15.33;76.37
76994;BME280;66749;47.406;18.822;2023-06-01T00:02:56;100543.13;;;15.33;76.26
76994;BME280;66749;47.406;18.822;2023-06-01T00:03:29;100544.84;;;15.34;76.22
76994;BME280;66749;47.406;18.822;2023-06-01T00:04:03;100546.00;;;15.30;76.52
76994;BME280;66749;47.406;18.822;2023-06-01T00:04:35;100546.72;;;15.32;76.57
76994;BME280;66749;47.406;18.822;2023-06-01T00:05:12;100539.91;;;15.30;75.96
76994;BME280;66749;47.406;18.822;2023-06-01T00:05:44;100540.16;;;15.26;76.48
76994;BME280;66749;47.406;18.822;2023-06-01T00:06:16;100542.88;;;15.25;76.07
76994;BME280;66749;47.406;18.822;2023-06-01T00:06:47;100540.59;;;15.20;76.08
76994;BME280;66749;47.406;18.822;2023-06-01T00:07:19;100539.75;;;15.20;76.18
76994;BME280;66749;47.406;18.822;2023-06-01T00:07:52;100538.28;;;15.16;76.66
76994;BME280;66749;47.406;18.822;2023-06-01T00:08:24;100537.22;;;15.18;77.06
76994;BME280;66749;47.406;18.822;2023-06-01T00:08:57;100536.50;;;15.16;76.66
76994;BME280;66749;47.406;18.822;2023-06-01T00:09:29;100538.28;;;15.16;76.39
76994;BME280;66749;47.406;18.822;2023-06-01T00:10:01;100542.94;;;15.12;76.95
76994;BME280;66749;47.406;18.822;2023-06-01T00:10:33;100544.63;;;15.13;76.35
76994;BME280;66749;47.406;18.822;2023-06-01T00:11:04;100540.41;;;15.11;76.48
76994;BME280;66749;47.406;18.822;2023-06-01T00:11:36;100532.50;;;15.11;76.51
76994;BME280;66749;47.406;18.822;2023-06-01T00:12:09;100528.44;;;15.07;76.86
76994;BME280;66749;47.406;18.822;2023-06-01T00:12:41;100537.06;;;15.09;76.99
76994;BME280;66749;47.406;18.822;2023-06-01T00:13:13;100535.97;;;15.11;76.38
76994;BME280;66749;47.406;18.822;2023-06-01T00:13:45;100537.06;;;15.09;76.31
76994;BME280;66749;47.406;18.822;2023-06-01T00:14:17;100538.25;;;15.05;76.08
76994;BME280;66749;47.406;18.822;2023-06-01T00:14:50;100530.56;;;15.02;76.61
76994;BME280;66749;47.406;18.822;2023-06-01T00:15:22;100530.34;;;15.05;76.37
76994;BME280;66749;47.406;18.822;2023-06-01T00:15:54;100532.97;;;15.05;76.54
76994;BME280;66749;47.406;18.822;2023-06-01T00:16:26;100537.16;;;15.07;76.54
76994;BME280;66749;47.406;18.822;2023-06-01T00:16:58;100529.28;;;15.07;76.33
76994;BME280;66749;47.406;18.822;2023-06-01T00:17:30;100532.03;;;15.06;76.38
76994;BME280;66749;47.406;18.822;2023-06-01T00:18:03;100531.28;;;15.04;76.89
76994;BME280;66749;47.406;18.822;2023-06-01T00:18:37;100532.03;;;15.06;76.25
76994;BME280;66749;47.406;18.822;2023-06-01T00:19:09;100529.59;;;15.03;75.98
76994;BME280;66749;47.406;18.822;2023-06-01T00:19:42;100526.97;;;15.03;76.70
76994;BME280;66749;47.406;18.822;2023-06-01T00:20:17;100531.63;;;14.99;76.12
76994;BME280;66749;47.406;18.822;2023-06-01T00:20:49;100529.94;;;14.98;76.98
76994;BME280;66749;47.406;18.822;2023-06-01T00:21:23;100526.38;;;14.99;76.35
76994;BME280;66749;47.406;18.822;2023-06-01T00:21:55;100526.50;;;14.97;76.97
76994;BME280;66749;47.406;18.822;2023-06-01T00:22:28;100527.53;;;14.95;76.33
76994;BME280;66749;47.406;18.822;2023-06-01T00:23:05;100531.22;;;14.92;77.01
76994;BME280;66749;47.406;18.822;2023-06-01T00:23:38;100527.53;;;14.95;76.74
76994;BME280;66749;47.406;18.822;2023-06-01T00:24:12;100531.94;;;14.94;76.74
76994;BME280;66749;47.406;18.822;2023-06-01T00:24:44;100524.81;;;14.96;76.42
76994;BME280;66749;47.406;18.822;2023-06-01T00:25:16;100525.66;;;14.97;76.71
76994;BME280;66749;47.406;18.822;2023-06-01T00:25:48;100523.88;;;14.97;76.92
76994;BME280;66749;47.406;18.822;2023-06-01T00:26:20;100526.56;;;14.96;77.10
76994;BME280;66749;47.406;18.822;2023-06-01T00:26:52;100523.09;;;14.95;76.89
76994;BME280;66749;47.406;18.822;2023-06-01T00:27:24;100525.75;;;14.95;77.07
76994;BME280;66749;47.406;18.822;2023-06-01T00:27:56;100525.03;;;14.93;77.23
76994;BME280;66749;47.406;18.822;2023-06-01T00:28:28;100522.50;;;14.92;76.79
76994;BME280;66749;47.406;18.822;2023-06-01T00:29:00;100528.38;;;14.95;77.19
76994;BME280;66749;47.406;18.822;2023-06-01T00:29:32;100523.22;;;14.94;77.38
76994;BME280;66749;47.406;18.822;2023-06-01T00:30:04;100524.50;;;14.88;76.50
76994;BME280;66749;47.406;18.822;2023-06-01T00:30:36;100524.00;;;14.83;76.92
76994;BME280;66749;47.406;18.822;2023-06-01T00:31:08;100525.44;;;14.87;76.81
76994;BME280;66749;47.406;18.822;2023-06-01T00:31:40;100522.00;;;14.87;77.04
76994;BME280;66749;47.406;18.822;2023-06-01T00:32:12;100523.66;;;14.88;77.25
76994;BME280;66749;47.406;18.822;2023-06-01T00:32:44;100522.81;;;14.87;76.60
76994;BME280;66749;47.406;18.822;2023-06-01T00:33:16;100517.81;;;14.84;77.30
76994;BME280;66749;47.406;18.822;2023-06-01T00:33:47;100526.84;;;14.80;77.47
76994;BME280;66749;47.406;18.822;2023-06-01T00:34:19;100526.84;;;14.80;77.62
76994;BME280;66749;47.406;18.822;2023-06-01T00:34:51;100518.13;;;14.80;77.57
76994;BME280;66749;47.406;18.822;2023-06-01T00:35:23;100527.91;;;14.78;77.67
76994;BME280;66749;47.406;18.822;2023-06-01T00:35:55;100528.88;;;14.77;76.89
76994;BME280;66749;47.406;18.822;2023-06-01T00:36:27;100527.06;;;14.77;77.56
76994;BME280;66749;47.406;18.822;2023-06-01T00:36:59;100525.28;;;14.78;76.80
76994;BME280;66749;47.406;18.822;2023-06-01T00:37:31;100531.50;;;14.77;77.63
76994;BME280;66749;47.406;18.822;2023-06-01T00:38:03;100526.47;;;14.74;76.96
76994;BME280;66749;47.406;18.822;2023-06-01T00:38:35;100527.31;;;14.74;76.96
76994;BME280;66749;47.406;18.822;2023-06-01T00:39:06;100522.47;;;14.68;76.93
76994;BME280;66749;47.406;18.822;2023-06-01T00:39:38;100525.59;;;14.73;77.19
76994;BME280;66749;47.406;18.822;2023-06-01T00:40:10;100519.50;;;14.73;77.65
76994;BME280;66749;47.406;18.822;2023-06-01T00:40:42;100522.25;;;14.71;77.12
76994;BME280;66749;47.406;18.822;2023-06-01T00:41:17;100519.50;;;14.73;76.99
76994;BME280;66749;47.406;18.822;2023-06-01T00:41:49;100523.91;;;14.72;77.53
76994;BME280;66749;47.406;18.822;2023-06-01T00:42:21;100524.03;;;14.70;76.83
76994;BME280;66749;47.406;18.822;2023-06-01T00:42:52;100525.09;;;14.68;77.22
76994;BME280;66749;47.406;18.822;2023-06-01T00:43:24;100524.28;;;14.67;77.25
76994;BME280;66749;47.406;18.822;2023-06-01T00:43:56;100533.19;;;14.65;77.14
76994;BME280;66749;47.406;18.822;2023-06-01T00:44:28;100527.94;;;14.65;77.45
76994;BME280;66749;47.406;18.822;2023-06-01T00:45:00;100515.44;;;14.68;77.60
76994;BME280;66749;47.406;18.822;2023-06-01T00:45:32;100523.44;;;14.67;76.76
76994;BME280;66749;47.406;18.822;2023-06-01T00:46:04;100539.38;;;14.64;76.67
76994;BME280;66749;47.406;18.822;2023-06-01T00:46:36;100526.50;;;14.61;77.23
76994;BME280;66749;47.406;18.822;2023-06-01T00:47:09;100524.81;;;14.60;77.18
76994;BME280;66749;47.406;18.822;2023-06-01T00:47:43;100520.50;;;14.59;76.83
76994;BME280;66749;47.406;18.822;2023-06-01T00:48:16;100525.00;;;14.57;76.82
76994;BME280;66749;47.406;18.822;2023-06-01T00:48:49;100525.00;;;14.57;77.16
76994;BME280;66749;47.406;18.822;2023-06-01T00:49:22;100529.94;;;14.61;77.09
76994;BME280;66749;47.406;18.822;2023-06-01T00:49:54;100523.13;;;14.59;77.14
76994;BME280;66749;47.406;18.822;2023-06-01T00:50:26;100525.25;;;14.54;77.14
76994;BME280;66749;47.406;18.822;2023-06-01T00:50:58;100531.03;;;14.59;77.06
76994;BME280;66749;47.406;18.822;2023-06-01T00:51:32;100525.84;;;14.57;77.02
76994;BME280;66749;47.406;18.822;2023-06-01T00:52:04;100526.50;;;14.61;76.42
76994;BME280;66749;47.406;18.822;2023-06-01T00:52:37;100532.78;;;14.58;76.14
76994;BME280;66749;47.406;18.822;2023-06-01T00:53:20;100526.06;;;14.54;76.88
76994;BME280;66749;47.406;18.822;2023-06-01T00:53:52;100533.00;;;14.55;76.58
76994;BME280;66749;47.406;18.822;2023-06-01T00:54:24;100528.47;;;14.57;76.13
76994;BME280;66749;47.406;18.822;2023-06-01T00:54:56;100531.75;;;14.61;76.81
76994;BME280;66749;47.406;18.822;2023-06-01T00:55:28;100527.44;;;14.60;76.58
76994;BME280;66749;47.406;18.822;2023-06-01T00:56:00;100525.66;;;14.60;76.64
76994;BME280;66749;47.406;18.822;2023-06-01T00:56:32;100533.41;;;14.62;76.19
76994;BME280;66749;47.406;18.822;2023-06-01T00:57:05;100533.31;;;14.63;76.33
76994;BME280;66749;47.406;18.822;2023-06-01T00:57:42;100525.41;;;14.63;76.54
76994;BME280;66749;47.406;18.822;2023-06-01T00:58:15;100522.69;;;14.65;76.34
76994;BME280;66749;47.406;18.822;2023-06-01T00:58:47;100529.22;;;14.59;76.54
76994;BME280;66749;47.406;18.822;2023-06-01T00:59:20;100530.16;;;14.58;76.85
76994;BME280;66749;47.406;18.822;2023-06-01T00:59:53;100524.41;;;14.53;76.67
76994;BME280;66749;47.406;18.822;2023-06-01T01:00:26;100525.97;;;14.56;76.21
76994;BME280;66749;47.406;18.822;2023-06-01T01:00:58;100521.88;;;14.52;76.15
76994;BME280;66749;47.406;18.822;2023-06-01T01:01:31;100520.19;;;14.51;76.74
76994;BME280;66749;47.406;18.822;2023-06-01T01:02:03;100520.94;;;14.53;76.86
76994;BME280;66749;47.406;18.822;2023-06-01T01:02:40;100520.09;;;14.52;76.15
76994;BME280;66749;47.406;18.822;2023-06-01T01:03:12;100523.56;;;14.53;76.32
76994;BME280;66749;47.406;18.822;2023-06-01T01:03:47;100521.88;;;14.52;76.35
76994;BME280;66749;47.406;18.822;2023-06-01T01:04:21;100519.56;;;14.47;76.54
76994;BME280;66749;47.406;18.822;2023-06-01T01:04:58;100529.13;;;14.48;76.71
76994;BME280;66749;47.406;18.822;2023-06-01T01:05:31;100519.56;;;14.47;77.06
76994;BME280;66749;47.406;18.822;2023-06-01T01:06:17;100529.00;;;14.50;76.92
76994;BME280;66749;47.406;18.822;2023-06-01T01:07:11;100520.41;;;14.48;76.35
76994;BME280;66749;47.406;18.822;2023-06-01T01:08:05;100512.53;;;14.48;76.96
76994;BME280;66749;47.406;18.822;2023-06-01T01:08:58;100514.94;;;14.51;76.49
76994;BME280;66749;47.406;18.822;2023-06-01T01:10:01;100518.44;;;14.51;76.91
76994;BME280;66749;47.406;18.822;2023-06-01T01:11:32;100522.72;;;14.52;76.66
76994;BME280;66749;47.406;18.822;2023-06-01T01:12:31;100523.75;;;14.50;76.81
76994;BME280;66749;47.406;18.822;2023-06-01T01:13:23;100524.59;;;14.50;76.84
76994;BME280;66749;47.406;18.822;2023-06-01T01:14:50;100520.41;;;14.48;77.48
76994;BME280;66749;47.406;18.822;2023-06-01T01:16:31;100522.91;;;14.49;76.95
76994;BME280;66749;47.406;18.822;2023-06-01T01:17:26;100526.38;;;14.50;77.19
76994;BME280;66749;47.406;18.822;2023-06-01T01:18:15;100521.25;;;14.48;77.30
76994;BME280;66749;47.406;18.822;2023-06-01T01:19:00;100526.50;;;14.48;77.34
76994;BME280;66749;47.406;18.822;2023-06-01T01:19:43;100527.34;;;14.49;77.24
76994;BME280;66749;47.406;18.822;2023-06-01T01:20:25;100524.94;;;14.46;77.24
76994;BME280;66749;47.406;18.822;2023-06-01T01:21:02;100522.09;;;14.49;77.40
76994;BME280;66749;47.406;18.822;2023-06-01T01:21:39;100527.72;;;14.42;77.78
76994;BME280;66749;47.406;18.822;2023-06-01T01:22:39;100523.22;;;14.44;77.63
76994;BME280;66749;47.406;18.822;2023-06-01T01:24:17;100526.28;;;14.38;77.37
76994;BME280;66749;47.406;18.822;2023-06-01T01:29:06;100513.16;;;14.38;77.46
76994;BME280;66749;47.406;18.822;2023-06-01T01:29:42;100519.34;;;14.37;78.27
76994;BME280;66749;47.406;18.822;2023-06-01T01:30:17;100524.81;;;14.34;78.20
76994;BME280;66749;47.406;18.822;2023-06-01T01:30:54;100515.97;;;14.35;77.95
76994;BME280;66749;47.406;18.822;2023-06-01T01:31:30;100516.63;;;14.39;77.56
76994;BME280;66749;47.406;18.822;2023-06-01T01:32:04;100523.66;;;14.38;77.76
76994;BME280;66749;47.406;18.822;2023-06-01T01:32:37;100520.19;;;14.38;77.39
76994;BME280;66749;47.406;18.822;2023-06-01T01:33:10;100521.22;;;14.35;77.67
76994;BME280;66749;47.406;18.822;2023-06-01T01:33:44;100523.13;;;14.33;77.18
76994;BME280;66749;47.406;18.822;2023-06-01T01:34:19;100519.56;;;14.34;77.64
76994;BME280;66749;47.406;18.822;2023-06-01T01:34:52;100521.22;;;14.35;77.31
76994;BME280;66749;47.406;18.822;2023-06-01T01:35:26;100517.69;;;14.36;77.90
76994;BME280;66749;47.406;18.822;2023-06-01T01:36:01;100519.47;;;14.36;77.32
76994;BME280;66749;47.406;18.822;2023-06-01T01:36:33;100516.19;;;14.32;77.62
76994;BME280;66749;47.406;18.822;2023-06-01T01:37:07;100515.66;;;14.27;78.04
76994;BME280;66749;47.406;18.822;2023-06-01T01:37:50;100518.22;;;14.29;77.25
76994;BME280;66749;47.406;18.822;2023-06-01T01:38:23;100515.78;;;14.26;77.75
76994;BME280;66749;47.406;18.822;2023-06-01T01:38:55;100521.44;;;14.32;77.65
76994;BME280;66749;47.406;18.822;2023-06-01T01:39:27;100517.88;;;14.33;77.45
76994;BME280;66749;47.406;18.822;2023-06-01T01:39:59;100511.91;;;14.31;77.39
76994;BME280;66749;47.406;18.822;2023-06-01T01:40:31;100518.09;;;14.30;77.61
76994;BME280;66749;47.406;18.822;2023-06-01T01:41:03;100515.47;;;14.30;77.28
76994;BME280;66749;47.406;18.822;2023-06-01T01:41:35;100521.75;;;14.28;77.55
76994;BME280;66749;47.406;18.822;2023-06-01T01:42:08;100518.22;;;14.29;77.24
76994;BME280;66749;47.406;18.822;2023-06-01T01:42:39;100514.84;;;14.27;76.84
76994;BME280;66749;47.406;18.822;2023-06-01T01:43:12;100519.06;;;14.29;77.51
76994;BME280;66749;47.406;18.822;2023-06-01T01:43:44;100515.59;;;14.29;77.39
76994;BME280;66749;47.406;18.822;2023-06-01T01:44:17;100520.00;;;14.28;77.53
76994;BME280;66749;47.406;18.822;2023-06-01T01:44:49;100520.00;;;14.28;77.10
76994;BME280;66749;47.406;18.822;2023-06-01T01:45:21;100530.69;;;14.25;77.24
76994;BME280;66749;47.406;18.822;2023-06-01T01:46:24;100529.03;;;14.24;77.15
76994;BME280;66749;47.406;18.822;2023-06-01T01:47:11;100524.72;;;14.23;77.51
76994;BME280;66749;47.406;18.822;2023-06-01T01:48:36;100521.16;;;14.24;77.35
76994;BME280;66749;47.406;18.822;2023-06-01T01:49:20;100517.81;;;14.22;77.13
76994;BME280;66749;47.406;18.822;2023-06-01T01:49:59;100519.59;;;14.22;77.49
76994;BME280;66749;47.406;18.822;2023-06-01T01:50:38;100523.34;;;14.18;77.54
76994;BME280;66749;47.406;18.822;2023-06-01T01:51:18;100512.75;;;14.19;77.36
76994;BME280;66749;47.406;18.822;2023-06-01T01:52:42;100524.00;;;14.21;77.53
76994;BME280;66749;47.406;18.822;2023-06-01T01:53:17;100522.94;;;14.24;77.61
76994;BME280;66749;47.406;18.822;2023-06-01T01:53:51;100516.72;;;14.25;77.36
76994;BME280;66749;47.406;18.822;2023-06-01T01:54:25;100529.03;;;14.24;77.27
76994;BME280;66749;47.406;18.822;2023-06-01T01:54:58;100522.94;;;14.24;77.55
76994;BME280;66749;47.406;18.822;2023-06-01T01:55:31;100518.53;;;14.24;78.25
76994;BME280;66749;47.406;18.822;2023-06-01T01:56:07;100517.69;;;14.24;77.84
76994;BME280;66749;47.406;18.822;2023-06-01T01:56:40;100514.94;;;14.25;77.74
76994;BME280;66749;47.406;18.822;2023-06-01T01:57:13;100509.69;;;14.25;77.77
76994;BME280;66749;47.406;18.822;2023-06-01T01:57:48;100516.63;;;14.26;77.75
76994;BME280;66749;47.406;18.822;2023-06-01T01:58:20;100518.28;;;14.27;77.63
76994;BME280;66749;47.406;18.822;2023-06-01T01:58:53;100514.34;;;14.22;77.54
76994;BME280;66749;47.406;18.822;2023-06-01T01:59:26;100510.88;;;14.21;78.05
76994;BME280;66749;47.406;18.822;2023-06-01T01:59:58;100512.63;;;14.21;77.88
76994;BME280;66749;47.406;18.822;2023-06-01T02:00:31;100516.13;;;14.21;77.74
76994;BME280;66749;47.406;18.822;2023-06-01T02:01:04;100512.75;;;14.19;77.75
76994;BME280;66749;47.406;18.822;2023-06-01T02:01:36;100507.50;;;14.19;78.17
76994;BME280;66749;47.406;18.822;2023-06-01T02:02:12;100522.22;;;14.22;78.18
76994;BME280;66749;47.406;18.822;2023-06-01T02:02:47;100509.09;;;14.22;77.50
76994;BME280;66749;47.406;18.822;2023-06-01T02:03:19;100516.19;;;14.20;78.16
76994;BME280;66749;47.406;18.822;2023-06-01T02:04:02;100510.13;;;14.19;78.13
76994;BME280;66749;47.406;18.822;2023-06-01T02:04:42;100511.78;;;14.20;78.23
76994;BME280;66749;47.406;18.822;2023-06-01T02:05:15;100521.38;;;14.21;78.26
76994;BME280;66749;47.406;18.822;2023-06-01T02:05:46;100510.88;;;14.21;77.76
76994;BME280;66749;47.406;18.822;2023-06-01T02:06:18;100513.50;;;14.21;78.13
76994;BME280;66749;47.406;18.822;2023-06-01T02:06:50;100511.91;;;14.19;78.06
76994;BME280;66749;47.406;18.822;2023-06-01T02:07:22;100505.94;;;14.16;78.11
76994;BME280;66749;47.406;18.822;2023-06-01T02:07:54;100517.38;;;14.15;77.91
76994;BME280;66749;47.406;18.822;2023-06-01T02:08:26;100517.50;;;14.14;77.70
76994;BME280;66749;47.406;18.822;2023-06-01T02:08:58;100517.91;;;14.08;77.96
76994;BME280;66749;47.406;18.822;2023-06-01T02:09:30;100511.94;;;14.06;78.00
76994;BME280;66749;47.406;18.822;2023-06-01T02:10:02;100513.78;;;14.04;78.24
76994;BME280;66749;47.406;18.822;2023-06-01T02:10:34;100510.03;;;14.08;78.68
76994;BME280;66749;47.406;18.822;2023-06-01T02:11:06;100514.56;;;14.06;78.69
76994;BME280;66749;47.406;18.822;2023-06-01T02:11:38;100513.19;;;14.00;78.63
76994;BME280;66749;47.406;18.822;2023-06-01T02:12:10;100505.31;;;14.00;78.43
76994;BME280;66749;47.406;18.822;2023-06-01T02:12:42;100507.00;;;14.01;78.43
76994;BME280;66749;47.406;18.822;2023-06-01T02:13:14;100509.50;;;14.03;78.36
76994;BME280;66749;47.406;18.822;2023-06-01T02:13:47;100516.84;;;13.98;78.33
76994;BME280;66749;47.406;18.822;2023-06-01T02:14:19;100510.84;;;13.96;78.28
76994;BME280;66749;47.406;18.822;2023-06-01T02:14:51;100515.16;;;13.97;78.07
76994;BME280;66749;47.406;18.822;2023-06-01T02:15:22;100514.22;;;13.98;78.04
76994;BME280;66749;47.406;18.822;2023-06-01T02:15:54;100515.91;;;13.99;78.57
76994;BME280;66749;47.406;18.822;2023-06-01T02:16:26;100508.22;;;13.96;78.00
76994;BME280;66749;47.406;18.822;2023-06-01T02:16:58;100517.78;;;13.97;77.87
76994;BME280;66749;47.406;18.822;2023-06-01T02:17:32;100511.81;;;13.95;78.16
76994;BME280;66749;47.406;18.822;2023-06-01T02:18:06;100519.91;;;13.92;78.61
76994;BME280;66749;47.406;18.822;2023-06-01T02:18:39;100517.34;;;13.90;78.33
76994;BME280;66749;47.406;18.822;2023-06-01T02:19:13;100512.03;;;13.92;78.30
76994;BME280;66749;47.406;18.822;2023-06-01T02:19:47;100513.16;;;13.87;78.07
76994;BME280;66749;47.406;18.822;2023-06-01T02:20:19;100514.13;;;13.86;78.29
76994;BME280;66749;47.406;18.822;2023-06-01T02:20:51;100516.00;;;13.84;78.43
76994;BME280;66749;47.406;18.822;2023-06-01T02:21:24;100510.75;;;13.84;78.37
76994;BME280;66749;47.406;18.822;2023-06-01T02:21:56;100510.66;;;13.86;78.01
76994;BME280;66749;47.406;18.822;2023-06-01T02:22:28;100516.00;;;13.84;78.10
76994;BME280;66749;47.406;18.822;2023-06-01T02:23:00;100510.00;;;13.82;78.53
76994;BME280;66749;47.406;18.822;2023-06-01T02:23:32;100515.25;;;13.82;78.16
76994;BME280;66749;47.406;18.822;2023-06-01T02:24:04;100504.88;;;13.81;78.95
76994;BME280;66749;47.406;18.822;2023-06-01T02:24:38;100507.38;;;13.82;78.62
76994;BME280;66749;47.406;18.822;2023-06-01T02:25:10;100504.88;;;13.81;78.75
76994;BME280;66749;47.406;18.822;2023-06-01T02:25:42;100504.97;;;13.79;78.68
76994;BME280;66749;47.406;18.822;2023-06-01T02:26:14;100509.28;;;13.80;78.25
76994;BME280;66749;47.406;18.822;2023-06-01T02:26:47;100501.53;;;13.79;78.66
76994;BME280;66749;47.406;18.822;2023-06-01T02:27:23;100497.09;;;13.79;78.98
76994;BME280;66749;47.406;18.822;2023-06-01T02:27:55;100498.16;;;13.77;78.97
76994;BME280;66749;47.406;18.822;2023-06-01T02:28:27;100499.13;;;13.76;78.74
76994;BME280;66749;47.406;18.822;2023-06-01T02:28:59;100499.00;;;13.77;78.61
76994;BME280;66749;47.406;18.822;2023-06-01T02:29:31;100502.56;;;13.76;79.21
76994;BME280;66749;47.406;18.822;2023-06-01T02:30:03;100500.91;;;13.75;78.88
76994;BME280;66749;47.406;18.822;2023-06-01T02:30:37;100506.88;;;13.77;79.29
76994;BME280;66749;47.406;18.822;2023-06-01T02:31:10;100507.59;;;13.79;79.00
76994;BME280;66749;47.406;18.822;2023-06-01T02:31:42;100499.00;;;13.77;78.94
76994;BME280;66749;47.406;18.822;2023-06-01T02:32:13;100504.25;;;13.77;78.96
76994;BME280;66749;47.406;18.822;2023-06-01T02:32:45;100505.28;;;13.75;79.02
76994;BME280;66749;47.406;18.822;2023-06-01T02:33:20;100502.75;;;13.73;78.84
76994;BME280;66749;47.406;18.822;2023-06-01T02:33:52;100504.44;;;13.74;79.20
76994;BME280;66749;47.406;18.822;2023-06-01T02:34:23;100505.38;;;13.73;79.00
76994;BME280;66749;47.406;18.822;2023-06-01T02:34:56;100501.09;;;13.72;78.67
76994;BME280;66749;47.406;18.822;2023-06-01T02:35:27;100502.75;;;13.73;79.25
76994;BME280;66749;47.406;18.822;2023-06-01T02:35:59;100506.16;;;13.75;78.69
76994;BME280;66749;47.406;18.822;2023-06-01T02:36:32;100499.00;;;13.77;78.84
76994;BME280;66749;47.406;18.822;2023-06-01T02:37:04;100505.19;;;13.76;79.24
76994;BME280;66749;47.406;18.822;2023-06-01T02:37:36;100504.44;;;13.74;79.49
76994;BME280;66749;47.406;18.822;2023-06-01T02:38:08;100506.56;;;13.69;79.35
76994;BME280;66749;47.406;18.822;2023-06-01T02:38:40;100499.63;;;13.68;79.43
76994;BME280;66749;47.406;18.822;2023-06-01T02:39:12;100501.38;;;13.68;79.43
76994;BME280;66749;47.406;18.822;2023-06-01T02:39:43;100505.78;;;13.67;79.19
76994;BME280;66749;47.406;18.822;2023-06-01T02:40:15;100501.38;;;13.68;79.31
76994;BME280;66749;47.406;18.822;2023-06-01T02:40:47;100511.81;;;13.69;79.46
76994;BME280;66749;47.406;18.822;2023-06-01T02:41:19;100503.50;;;13.63;79.82
76994;BME280;66749;47.406;18.822;2023-06-01T02:41:52;100501.72;;;13.63;79.22
76994;BME280;66749;47.406;18.822;2023-06-01T02:42:24;100506.84;;;13.65;79.47
76994;BME280;66749;47.406;18.822;2023-06-01T02:42:56;100506.31;;;13.59;79.72
76994;BME280;66749;47.406;18.822;2023-06-01T02:43:28;100502.94;;;13.57;79.65
76994;BME280;66749;47.406;18.822;2023-06-01T02:44:00;100500.03;;;13.62;79.87
76994;BME280;66749;47.406;18.822;2023-06-01T02:44:31;100501.72;;;13.63;79.74
76994;BME280;66749;47.406;18.822;2023-06-01T02:45:05;100503.38;;;13.64;80.05
76994;BME280;66749;47.406;18.822;2023-06-01T02:45:37;100506.31;;;13.59;80.32
76994;BME280;66749;47.406;18.822;2023-06-01T02:46:10;100508.63;;;13.64;79.89
76994;BME280;66749;47.406;18.822;2023-06-01T02:46:42;100501.59;;;13.65;79.92
76994;BME280;66749;47.406;18.822;2023-06-01T02:47:14;100506.84;;;13.65;79.42
76994;BME280;66749;47.406;18.822;2023-06-01T02:47:45;100503.59;;;13.61;79.72
76994;BME280;66749;47.406;18.822;2023-06-01T02:48:17;100503.69;;;13.59;79.84
76994;BME280;66749;47.406;18.822;2023-06-01T02:48:49;100509.78;;;13.60;79.94
76994;BME280;66749;47.406;18.822;2023-06-01T02:49:22;100502.84;;;13.59;79.77
76994;BME280;66749;47.406;18.822;2023-06-01T02:49:54;100505.06;;;13.65;80.12
76994;BME280;66749;47.406;18.822;2023-06-01T02:50:26;100507.50;;;13.68;79.61
76994;BME280;66749;47.406;18.822;2023-06-01T02:50:58;100502.56;;;13.64;80.27
76994;BME280;66749;47.406;18.822;2023-06-01T02:51:30;100500.03;;;13.62;80.38
76994;BME280;66749;47.406;18.822;2023-06-01T02:52:03;100497.41;;;13.62;80.63
76994;BME280;66749;47.406;18.822;2023-06-01T02:52:35;100507.69;;;13.65;80.13
76994;BME280;66749;47.406;18.822;2023-06-01T02:53:07;100504.00;;;13.68;80.11
76994;BME280;66749;47.406;18.822;2023-06-01T02:53:39;100506.75;;;13.66;80.04
76994;BME280;66749;47.406;18.822;2023-06-01T02:54:11;100509.47;;;13.65;80.54
76994;BME280;66749;47.406;18.822;2023-06-01T02:54:43;100499.81;;;13.65;80.00
76994;BME280;66749;47.406;18.822;2023-06-01T02:55:15;100507.56;;;13.67;80.13
76994;BME280;66749;47.406;18.822;2023-06-01T02:55:47;100507.50;;;13.68;80.19
76994;BME280;66749;47.406;18.822;2023-06-01T02:56:19;100509.38;;;13.66;79.88
76994;BME280;66749;47.406;18.822;2023-06-01T02:56:51;100499.09;;;13.63;79.89
76994;BME280;66749;47.406;18.822;2023-06-01T02:57:22;100503.38;;;13.64;79.76
76994;BME280;66749;47.406;18.822;2023-06-01T02:57:54;100500.88;;;13.63;79.91
76994;BME280;66749;47.406;18.822;2023-06-01T02:58:26;100501.50;;;13.66;79.62
76994;BME280;66749;47.406;18.822;2023-06-01T02:59:01;100503.38;;;13.64;80.20
76994;BME280;66749;47.406;18.822;2023-06-01T02:59:34;100508.63;;;13.64;80.20
76994;BME280;66749;47.406;18.822;2023-06-01T03:00:06;100498.38;;;13.61;79.39
76994;BME280;66749;47.406;18.822;2023-06-01T03:00:47;100499.59;;;13.55;80.02
76994;BME280;66749;47.406;18.822;2023-06-01T03:01:19;100501.91;;;13.60;79.85
76994;BME280;66749;47.406;18.822;2023-06-01T03:01:52;100504.63;;;13.58;79.58
76994;BME280;66749;47.406;18.822;2023-06-01T03:02:24;100508.09;;;13.59;79.57
76994;BME280;66749;47.406;18.822;2023-06-01T03:02:57;100502.94;;;13.57;79.96
76994;BME280;66749;47.406;18.822;2023-06-01T03:03:29;100501.91;;;13.60;79.97
76994;BME280;66749;47.406;18.822;2023-06-01T03:04:02;100503.59;;;13.61;79.98
76994;BME280;66749;47.406;18.822;2023-06-01T03:04:37;100504.63;;;13.58;80.22